createdAt,value
2022-08-24T00:00:37.817Z,99113.44
2022-08-24T00:03:05.564Z,99123.06
2022-08-24T00:05:34.883Z,99127.84
2022-08-24T00:08:02.771Z,99127.41
2022-08-24T00:10:30.509Z,99123.31
2022-08-24T00:12:58.965Z,99122.91
2022-08-24T00:15:26.911Z,99125.44
2022-08-24T00:17:54.542Z,99119.34
2022-08-24T00:20:22.167Z,99128.91
2022-08-24T00:22:51.502Z,99124.53
2022-08-24T00:25:20.440Z,99117.91
2022-08-24T00:27:48.445Z,99117.31
2022-08-24T00:30:18.460Z,99115.47
2022-08-24T00:32:47.687Z,99127.72
2022-08-24T00:35:18.299Z,99118.53
2022-08-24T00:37:46.870Z,99124.53
2022-08-24T00:40:19.206Z,99122.41
2022-08-24T00:42:47.956Z,99128.56
2022-08-24T00:45:17.134Z,99122.28
2022-08-24T00:47:49.517Z,99121.88
2022-08-24T00:50:20.924Z,99129.47
2022-08-24T00:52:52.655Z,99124.84
2022-08-24T00:55:24.794Z,99125.00
2022-08-24T00:57:55.559Z,99124.97
2022-08-24T01:00:27.460Z,99126.44
2022-08-24T01:02:58.676Z,99133.91
2022-08-24T01:05:26.363Z,99121.88
2022-08-24T01:07:54.258Z,99130.59
2022-08-24T01:10:25.931Z,99124.94
2022-08-24T01:13:00.786Z,99126.31
2022-08-24T01:15:29.737Z,99133.72
2022-08-24T01:18:15.125Z,99126.53
2022-08-24T01:20:44.088Z,99131.44
2022-08-24T01:23:14.945Z,99129.16
2022-08-24T01:25:44.958Z,99132.16
2022-08-24T01:28:16.906Z,99136.69
2022-08-24T01:30:51.148Z,99133.16
2022-08-24T01:33:25.424Z,99135.59
2022-08-24T01:35:56.138Z,99129.63
2022-08-24T01:38:23.828Z,99142.25
2022-08-24T01:40:56.445Z,99134.31
2022-08-24T01:43:24.340Z,99141.31
2022-08-24T01:45:52.164Z,99136.94
2022-08-24T01:48:22.989Z,99139.75
2022-08-24T01:50:51.093Z,99138.59
2022-08-24T01:53:19.922Z,99146.81
2022-08-24T01:55:48.521Z,99140.59
2022-08-24T01:58:17.471Z,99143.81
2022-08-24T02:00:45.902Z,99149.56
2022-08-24T02:03:13.664Z,99154.13
2022-08-24T02:05:41.369Z,99154.13
2022-08-24T02:08:09.008Z,99146.97
2022-08-24T02:10:36.658Z,99154.31
2022-08-24T02:13:04.747Z,99147.50
2022-08-24T02:15:38.079Z,99154.50
2022-08-24T02:18:05.838Z,99152.81
2022-08-24T02:20:36.493Z,99160.25
2022-08-24T02:23:06.585Z,99146.25
2022-08-24T02:25:34.487Z,99157.22
2022-08-24T02:28:02.623Z,99162.66
2022-08-24T02:30:31.161Z,99157.56
2022-08-24T02:33:01.158Z,99160.41
2022-08-24T02:35:30.922Z,99157.22
2022-08-24T02:37:58.768Z,99163.91
2022-08-24T02:40:27.112Z,99157.69
2022-08-24T02:42:55.614Z,99165.69
2022-08-24T02:45:23.849Z,99162.66
2022-08-24T02:47:51.636Z,99161.09
2022-08-24T02:50:20.683Z,99157.63
2022-08-24T02:52:48.599Z,99150.09
2022-08-24T02:55:19.965Z,99161.59
2022-08-24T02:57:48.818Z,99155.88
2022-08-24T03:00:19.272Z,99164.16
2022-08-24T03:02:46.960Z,99165.00
2022-08-24T03:05:15.355Z,99170.28
2022-08-24T03:07:44.636Z,99168.13
2022-08-24T03:10:12.525Z,99169.94
2022-08-24T03:12:40.598Z,99168.75
2022-08-24T03:15:10.497Z,99173.63
2022-08-24T03:17:39.875Z,99169.59
2022-08-24T03:20:11.705Z,99175.72
2022-08-24T03:22:39.789Z,99169.03
2022-08-24T03:25:10.238Z,99168.22
2022-08-24T03:27:37.950Z,99168.22
2022-08-24T03:30:06.789Z,99160.66
2022-08-24T03:32:35.410Z,99159.34
2022-08-24T03:35:04.431Z,99155.91
2022-08-24T03:37:32.847Z,99161.50
2022-08-24T03:40:00.939Z,99153.75
2022-08-24T03:42:29.976Z,99150.22
2022-08-24T03:44:57.564Z,99157.53
2022-08-24T03:47:25.284Z,99163.13
2022-08-24T03:49:53.387Z,99161.19
2022-08-24T03:52:21.129Z,99161.69
2022-08-24T03:54:49.642Z,99162.16
2022-08-24T03:57:17.378Z,99162.41
2022-08-24T03:59:46.599Z,99156.09
2022-08-24T04:02:14.708Z,99156.34
2022-08-24T04:04:43.232Z,99158.66
2022-08-24T04:07:11.990Z,99162.41
2022-08-24T04:09:39.714Z,99160.00
2022-08-24T04:12:07.644Z,99162.41
2022-08-24T04:14:35.333Z,99158.28
2022-08-24T04:17:05.455Z,99165.34
2022-08-24T04:19:34.759Z,99163.75
2022-08-24T04:22:02.408Z,99164.97
2022-08-24T04:24:30.115Z,99155.84
2022-08-24T04:26:57.753Z,99166.28
2022-08-24T04:29:25.516Z,99172.38
2022-08-24T04:31:53.443Z,99169.22
2022-08-24T04:34:22.547Z,99174.81
2022-08-24T04:36:50.156Z,99166.44
2022-08-24T04:39:17.802Z,99179.78
2022-08-24T04:41:45.423Z,99177.38
2022-08-24T04:44:14.021Z,99175.28
2022-08-24T04:46:41.680Z,99176.88
2022-08-24T04:49:09.420Z,99186.97
2022-08-24T04:51:38.941Z,99187.09
2022-08-24T04:54:07.919Z,99183.31
2022-08-24T04:56:36.068Z,99180.03
2022-08-24T04:59:04.736Z,99186.72
2022-08-24T05:01:33.622Z,99190.38
2022-08-24T05:04:01.915Z,99193.53
2022-08-24T05:06:32.624Z,99208.47
2022-08-24T05:09:02.478Z,99206.78
2022-08-24T05:11:30.249Z,99198.00
2022-08-24T05:13:59.152Z,99207.25
2022-08-24T05:16:27.689Z,99213.69
2022-08-24T05:18:55.940Z,99206.88
2022-08-24T05:21:25.761Z,99211.28
2022-08-24T05:23:53.659Z,99205.19
2022-08-24T05:26:25.020Z,99209.69
2022-08-24T05:28:54.640Z,99211.50
2022-08-24T05:31:24.279Z,99220.75
2022-08-24T05:33:52.579Z,99215.78
2022-08-24T05:36:22.266Z,99218.06
2022-08-24T05:38:51.440Z,99218.78
2022-08-24T05:41:19.110Z,99222.69
2022-08-24T05:43:48.186Z,99223.16
2022-08-24T05:46:16.721Z,99228.91
2022-08-24T05:48:52.450Z,99222.44
2022-08-24T05:51:20.399Z,99221.97
2022-08-24T05:53:48.197Z,99229.38
2022-08-24T05:56:18.101Z,99225.34
2022-08-24T05:58:45.943Z,99228.03
2022-08-24T06:01:18.040Z,99222.16
2022-08-24T06:03:46.579Z,99227.41
2022-08-24T06:06:14.867Z,99225.44
2022-08-24T06:08:44.276Z,99228.41
2022-08-24T06:11:12.462Z,99230.50
2022-08-24T06:13:41.093Z,99228.50
2022-08-24T06:16:26.653Z,99232.31
2022-08-24T06:18:56.059Z,99231.19
2022-08-24T06:21:28.200Z,99224.84
2022-08-24T06:23:56.816Z,99230.16
2022-08-24T06:26:42.280Z,99231.78
2022-08-24T06:29:10.772Z,99227.00
2022-08-24T06:31:41.871Z,99226.94
2022-08-24T06:34:13.774Z,99229.66
2022-08-24T06:36:41.821Z,99229.50
2022-08-24T06:39:10.920Z,99230.81
2022-08-24T06:41:39.371Z,99231.44
2022-08-24T06:44:07.965Z,99234.75
2022-08-24T06:46:36.693Z,99229.63
2022-08-24T06:49:04.885Z,99233.16
2022-08-24T06:51:33.979Z,99238.38
2022-08-24T06:54:01.658Z,99236.41
2022-08-24T06:56:29.362Z,99229.56
2022-08-24T06:58:57.126Z,99241.47
2022-08-24T07:01:27.364Z,99244.72
2022-08-24T07:03:55.392Z,99240.13
2022-08-24T07:06:23.581Z,99256.56
2022-08-24T07:08:53.270Z,99248.72
2022-08-24T07:11:22.016Z,99258.31
2022-08-24T07:13:50.616Z,99250.47
2022-08-24T07:16:20.382Z,99255.34
2022-08-24T07:18:50.225Z,99257.44
2022-08-24T07:21:19.380Z,99254.00
2022-08-24T07:23:47.728Z,99254.44
2022-08-24T07:26:21.938Z,99266.38
2022-08-24T07:28:50.578Z,99263.34
2022-08-24T07:31:18.300Z,99257.75
2022-08-24T07:33:46.091Z,99268.28
2022-08-24T07:36:21.892Z,99262.63
2022-08-24T07:38:52.235Z,99265.19
2022-08-24T07:44:11.222Z,99267.72
2022-08-24T07:46:40.062Z,99264.06
2022-08-24T07:49:21.588Z,99266.19
2022-08-24T07:51:55.880Z,99268.56
2022-08-24T07:54:23.548Z,99258.25
2022-08-24T07:56:52.676Z,99269.84
2022-08-24T07:59:20.346Z,99266.19
2022-08-24T08:01:48.161Z,99271.72
2022-08-24T08:04:16.295Z,99275.94
2022-08-24T08:06:44.369Z,99271.41
2022-08-24T08:09:12.086Z,99273.47
2022-08-24T08:11:39.814Z,99278.38
2022-08-24T08:14:08.982Z,99275.94
2022-08-24T08:16:38.401Z,99275.03
2022-08-24T08:19:10.058Z,99289.44
2022-08-24T08:22:00.103Z,99281.19
2022-08-24T08:24:27.860Z,99282.84
2022-08-24T08:26:55.509Z,99286.53
2022-08-24T08:29:25.333Z,99285.31
2022-08-24T08:31:53.308Z,99275.75
2022-08-24T08:34:21.311Z,99282.28
2022-08-24T08:36:49.689Z,99284.59
2022-08-24T08:39:18.893Z,99287.59
2022-08-24T08:42:19.992Z,99286.28
2022-08-24T08:45:14.845Z,99282.56
2022-08-24T08:50:45.406Z,99282.78
2022-08-24T08:53:35.795Z,99281.03
2022-08-24T08:56:08.116Z,99289.28
2022-08-24T08:58:53.736Z,99281.59
2022-08-24T09:01:33.252Z,99277.34
2022-08-24T09:04:22.267Z,99273.03
2022-08-24T09:06:59.295Z,99275.66
2022-08-24T09:09:45.900Z,99278.25
2022-08-24T09:12:17.743Z,99270.81
2022-08-24T09:14:57.724Z,99271.22
2022-08-24T09:17:53.204Z,99272.63
2022-08-24T09:20:30.464Z,99275.72
2022-08-24T09:23:06.100Z,99281.13
2022-08-24T09:25:43.385Z,99275.13
2022-08-24T09:28:18.242Z,99274.13
2022-08-24T09:31:12.367Z,99277.84
2022-08-24T09:33:47.432Z,99283.75
2022-08-24T09:36:20.044Z,99273.28
2022-08-24T09:39:00.239Z,99279.69
2022-08-24T09:42:01.361Z,99273.94
2022-08-24T09:45:03.376Z,99267.53
2022-08-24T09:48:06.934Z,99274.94
2022-08-24T09:51:03.139Z,99279.03
2022-08-24T09:54:04.976Z,99274.94
2022-08-24T09:56:59.808Z,99277.66
2022-08-24T10:00:01.978Z,99270.91
2022-08-24T10:02:49.406Z,99273.00
2022-08-24T10:05:26.674Z,99268.78
2022-08-24T10:08:05.173Z,99262.19
2022-08-24T10:10:39.875Z,99261.69
2022-08-24T10:13:17.396Z,99258.94
2022-08-24T10:15:51.781Z,99260.69
2022-08-24T10:18:42.263Z,99258.66
2022-08-24T10:21:26.277Z,99256.19
2022-08-24T10:24:14.541Z,99252.09
2022-08-24T10:27:05.510Z,99250.53
2022-08-24T10:29:43.902Z,99259.09
2022-08-24T10:32:22.350Z,99255.47
2022-08-24T10:35:00.213Z,99247.22
2022-08-24T10:37:43.611Z,99246.28
2022-08-24T10:40:31.677Z,99248.88
2022-08-24T10:43:36.105Z,99247.72
2022-08-24T10:46:38.259Z,99243.56
2022-08-24T10:49:33.195Z,99241.81
2022-08-24T10:52:24.719Z,99250.28
2022-08-24T10:54:52.869Z,99250.41
2022-08-24T10:57:28.790Z,99245.38
2022-08-24T11:00:02.020Z,99244.72
2022-08-24T11:02:33.978Z,99239.03
2022-08-24T11:05:03.330Z,99246.41
2022-08-24T11:07:31.100Z,99238.38
2022-08-24T11:10:01.727Z,99234.19
2022-08-24T11:12:32.466Z,99237.16
2022-08-24T11:15:02.995Z,99233.22
2022-08-24T11:17:34.767Z,99231.91
2022-08-24T11:20:02.900Z,99229.75
2022-08-24T11:22:40.832Z,99228.69
2022-08-24T11:25:14.989Z,99226.88
2022-08-24T11:27:47.217Z,99225.38
2022-08-24T11:30:23.999Z,99233.66
2022-08-24T11:32:55.014Z,99230.31
2022-08-24T11:35:26.104Z,99222.06
2022-08-24T11:37:56.046Z,99209.81
2022-08-24T11:40:30.465Z,99215.03
2022-08-24T11:43:17.758Z,99211.84
2022-08-24T11:45:50.433Z,99206.16
2022-08-24T11:48:29.717Z,99205.69
2022-08-24T11:51:00.748Z,99207.53
2022-08-24T11:56:20.398Z,99209.56
2022-08-24T11:58:56.307Z,99208.81
2022-08-24T12:01:27.628Z,99206.78
2022-08-24T12:04:08.011Z,99207.31
2022-08-24T12:06:45.005Z,99198.00
2022-08-24T12:09:22.176Z,99205.03
2022-08-24T12:11:54.753Z,99201.22
2022-08-24T12:14:30.545Z,99199.34
2022-08-24T12:17:02.955Z,99203.38
2022-08-24T12:19:32.547Z,99198.25
2022-08-24T12:22:06.171Z,99194.78
2022-08-24T12:24:37.066Z,99194.31
2022-08-24T12:27:10.688Z,99191.97
2022-08-24T12:29:43.476Z,99192.44
2022-08-24T12:32:15.049Z,99191.69
2022-08-24T12:34:50.635Z,99190.09
2022-08-24T12:37:23.580Z,99189.44
2022-08-24T12:39:56.747Z,99188.50
2022-08-24T12:42:28.263Z,99186.19
2022-08-24T12:45:05.217Z,99185.47
2022-08-24T12:47:37.243Z,99181.69
2022-08-24T12:50:08.651Z,99180.69
2022-08-24T12:52:56.110Z,99177.06
2022-08-24T12:55:36.766Z,99181.25
2022-08-24T12:58:31.035Z,99170.97
2022-08-24T13:00:59.841Z,99174.09
2022-08-24T13:03:33.386Z,99162.34
2022-08-24T13:06:04.973Z,99169.25
2022-08-24T13:08:36.480Z,99157.41
2022-08-24T13:11:07.174Z,99172.91
2022-08-24T13:13:45.117Z,99164.72
2022-08-24T13:16:51.473Z,99169.59
2022-08-24T13:19:34.165Z,99157.94
2022-08-24T13:22:40.004Z,99157.13
2022-08-24T13:25:27.837Z,99156.38
2022-08-24T13:28:06.841Z,99165.25
2022-08-24T13:31:06.876Z,99165.13
2022-08-24T13:33:38.480Z,99141.22
2022-08-24T13:36:09.916Z,99151.31
2022-08-24T13:39:02.001Z,99159.66
2022-08-24T13:41:44.035Z,99139.63
2022-08-24T13:44:22.399Z,99148.03
2022-08-24T13:46:55.219Z,99142.81
2022-08-24T13:49:32.330Z,99141.03
2022-08-24T13:52:11.778Z,99139.88
2022-08-24T13:54:46.891Z,99137.38
2022-08-24T13:57:27.762Z,99137.22
2022-08-24T14:00:10.846Z,99132.44
2022-08-24T14:02:53.911Z,99127.63
2022-08-24T14:05:29.058Z,99136.22
2022-08-24T14:08:05.802Z,99128.41
2022-08-24T14:10:45.408Z,99130.50
2022-08-24T14:13:26.560Z,99130.28
2022-08-24T14:16:12.833Z,99126.94
2022-08-24T14:18:51.803Z,99119.78
2022-08-24T14:21:22.147Z,99119.59
2022-08-24T14:23:56.224Z,99118.09
2022-08-24T14:26:57.262Z,99127.13
2022-08-24T14:29:36.070Z,99128.88
2022-08-24T14:32:38.295Z,99119.03
2022-08-24T14:35:18.745Z,99111.25
2022-08-24T14:37:57.038Z,99122.38
2022-08-24T14:40:34.889Z,99112.81
2022-08-24T14:43:21.777Z,99114.72
2022-08-24T14:45:56.598Z,99111.59
2022-08-24T14:48:32.462Z,99109.47
2022-08-24T14:51:10.398Z,99112.25
2022-08-24T14:53:52.680Z,99110.94
2022-08-24T14:56:31.657Z,99112.94
2022-08-24T14:59:05.138Z,99108.81
2022-08-24T15:01:42.119Z,99103.47
2022-08-24T15:04:37.486Z,99114.53
2022-08-24T15:07:25.426Z,99102.41
2022-08-24T15:09:54.533Z,99102.63
2022-08-24T15:12:31.591Z,99091.72
2022-08-24T15:15:04.722Z,99096.13
2022-08-24T15:17:44.534Z,99090.91
2022-08-24T15:20:20.189Z,99095.34
2022-08-24T15:22:53.532Z,99090.47
2022-08-24T15:25:33.802Z,99088.69
2022-08-24T15:28:09.085Z,99084.69
2022-08-24T15:30:40.073Z,99086.75
2022-08-24T15:33:14.966Z,99076.66
2022-08-24T15:35:46.223Z,99087.78
2022-08-24T15:38:18.683Z,99084.59
2022-08-24T15:40:47.562Z,99080.00
2022-08-24T15:43:15.350Z,99086.41
2022-08-24T15:45:47.041Z,99087.72
2022-08-24T15:48:19.084Z,99091.66
2022-08-24T15:50:49.057Z,99095.41
2022-08-24T15:53:30.936Z,99087.56
2022-08-24T15:56:01.305Z,99080.00
2022-08-24T15:58:33.932Z,99082.13
2022-08-24T16:01:37.070Z,99087.41
2022-08-24T16:04:08.488Z,99078.22
2022-08-24T16:06:39.837Z,99083.72
2022-08-24T16:09:12.175Z,99083.63
2022-08-24T16:11:42.634Z,99087.41
2022-08-24T16:14:14.846Z,99079.75
2022-08-24T16:16:45.095Z,99087.28
2022-08-24T16:19:24.375Z,99085.41
2022-08-24T16:21:55.858Z,99085.25
2022-08-24T16:24:30.415Z,99080.81
2022-08-24T16:27:01.534Z,99082.28
2022-08-24T16:29:55.745Z,99072.75
2022-08-24T16:32:30.274Z,99081.72
2022-08-24T16:35:20.541Z,99074.22
2022-08-24T16:37:48.253Z,99063.63
2022-08-24T16:40:16.175Z,99072.03
2022-08-24T16:42:43.991Z,99074.75
2022-08-24T16:45:14.865Z,99076.66
2022-08-24T16:47:42.492Z,99072.03
2022-08-24T16:50:11.692Z,99078.91
2022-08-24T16:52:40.892Z,99068.66
2022-08-24T16:55:09.545Z,99058.56
2022-08-24T16:57:43.589Z,99071.47
2022-08-24T17:00:17.532Z,99073.91
2022-08-24T17:02:48.173Z,99068.84
2022-08-24T17:05:16.804Z,99071.16
2022-08-24T17:07:48.742Z,99064.25
2022-08-24T17:10:19.316Z,99067.91
2022-08-24T17:12:49.835Z,99069.88
2022-08-24T17:15:17.504Z,99061.34
2022-08-24T17:17:49.392Z,99071.97
2022-08-24T17:20:17.952Z,99073.00
2022-08-24T17:22:47.065Z,99061.38
2022-08-24T17:25:14.709Z,99076.63
2022-08-24T17:27:42.596Z,99072.38
2022-08-24T17:30:11.825Z,99061.09
2022-08-24T17:32:39.467Z,99067.13
2022-08-24T17:35:07.467Z,99068.00
2022-08-24T17:37:35.317Z,99068.84
2022-08-24T17:40:05.414Z,99077.59
2022-08-24T17:42:50.061Z,99081.16
2022-08-24T17:45:18.359Z,99081.59
2022-08-24T17:47:46.240Z,99077.81
2022-08-24T17:50:14.688Z,99086.41
2022-08-24T17:52:42.869Z,99095.78
2022-08-24T17:55:14.057Z,99092.72
2022-08-24T17:57:48.766Z,99088.31
2022-08-24T18:00:17.614Z,99095.25
2022-08-24T18:02:45.330Z,99096.72
2022-08-24T18:05:17.840Z,99094.47
2022-08-24T18:07:53.661Z,99098.03
2022-08-24T18:10:25.651Z,99097.53
2022-08-24T18:12:53.502Z,99099.13
2022-08-24T18:15:21.358Z,99104.91
2022-08-24T18:17:52.569Z,99107.22
2022-08-24T18:20:22.976Z,99108.47
2022-08-24T18:22:53.784Z,99102.75
2022-08-24T18:25:24.169Z,99098.53
2022-08-24T18:27:54.364Z,99113.00
2022-08-24T18:30:30.305Z,99107.34
2022-08-24T18:32:59.622Z,99107.75
2022-08-24T18:35:28.102Z,99101.31
2022-08-24T18:37:55.721Z,99116.44
2022-08-24T18:40:27.052Z,99113.25
2022-08-24T18:43:00.996Z,99119.84
2022-08-24T18:45:31.252Z,99115.47
2022-08-24T18:47:59.015Z,99118.19
2022-08-24T18:50:28.722Z,99120.81
2022-08-24T18:52:56.521Z,99118.81
2022-08-24T18:55:26.821Z,99116.16
2022-08-24T18:57:54.703Z,99120.44
2022-08-24T19:00:22.546Z,99115.75
2022-08-24T19:02:50.332Z,99119.47
2022-08-24T19:05:22.355Z,99121.69
2022-08-24T19:07:51.442Z,99121.06
2022-08-24T19:10:20.919Z,99119.06
2022-08-24T19:12:53.048Z,99125.31
2022-08-24T19:15:35.771Z,99126.00
2022-08-24T19:18:09.636Z,99116.22
2022-08-24T19:20:38.675Z,99126.69
2022-08-24T19:23:09.367Z,99124.13
2022-08-24T19:25:39.016Z,99123.78
2022-08-24T19:28:08.798Z,99130.22
2022-08-24T19:30:37.392Z,99126.66
2022-08-24T19:33:10.404Z,99125.66
2022-08-24T19:35:41.111Z,99130.56
2022-08-24T19:38:09.085Z,99122.09
2022-08-24T19:40:37.542Z,99124.66
2022-08-24T19:43:08.642Z,99126.84
2022-08-24T19:45:54.111Z,99123.63
2022-08-24T19:48:23.178Z,99126.66
2022-08-24T19:50:54.058Z,99125.31
2022-08-24T19:53:22.609Z,99123.09
2022-08-24T19:55:50.516Z,99121.91
2022-08-24T19:58:24.086Z,99118.19
2022-08-24T20:00:57.719Z,99125.31
2022-08-24T20:03:25.759Z,99124.59
2022-08-24T20:05:53.530Z,99119.38
2022-08-24T20:08:21.737Z,99124.59
2022-08-24T20:10:50.005Z,99128.13
2022-08-24T20:13:17.651Z,99128.13
2022-08-24T20:15:46.667Z,99127.94
2022-08-24T20:18:15.246Z,99132.63
2022-08-24T20:20:43.111Z,99135.00
2022-08-24T20:23:10.819Z,99130.59
2022-08-24T20:25:40.690Z,99137.81
2022-08-24T20:30:57.869Z,99128.16
2022-08-24T20:33:27.653Z,99135.59
2022-08-24T20:35:56.126Z,99133.38
2022-08-24T20:38:23.985Z,99128.47
2022-08-24T20:40:52.062Z,99127.78
2022-08-24T20:43:20.125Z,99131.19
2022-08-24T20:45:47.887Z,99128.44
2022-08-24T20:48:17.351Z,99136.38
2022-08-24T20:50:45.010Z,99130.34
2022-08-24T20:53:13.084Z,99125.75
2022-08-24T20:55:41.705Z,99135.22
2022-08-24T20:58:10.134Z,99132.03
2022-08-24T21:00:40.900Z,99130.56
2022-08-24T21:03:08.711Z,99131.03
2022-08-24T21:05:38.989Z,99138.22
2022-08-24T21:08:06.730Z,99140.41
2022-08-24T21:10:34.475Z,99141.66
2022-08-24T21:13:02.617Z,99144.34
2022-08-24T21:15:30.349Z,99138.91
2022-08-24T21:17:58.098Z,99136.31
2022-08-24T21:20:26.155Z,99137.09
2022-08-24T21:22:55.311Z,99141.78
2022-08-24T21:25:23.089Z,99146.13
2022-08-24T21:27:51.067Z,99148.72
2022-08-24T21:30:20.573Z,99144.63
2022-08-24T21:33:06.122Z,99149.03
2022-08-24T21:35:34.160Z,99142.78
2022-08-24T21:38:03.313Z,99150.66
2022-08-24T21:40:31.296Z,99143.16
2022-08-24T21:42:59.057Z,99151.66
2022-08-24T21:45:27.822Z,99145.00
2022-08-24T21:47:55.527Z,99147.00
2022-08-24T21:50:25.695Z,99145.63
2022-08-24T21:52:54.356Z,99144.56
2022-08-24T21:55:24.026Z,99138.88
2022-08-24T21:57:52.015Z,99150.25
2022-08-24T22:00:21.581Z,99149.66
2022-08-24T22:02:50.130Z,99140.88
2022-08-24T22:05:18.395Z,99149.56
2022-08-24T22:07:46.375Z,99148.66
2022-08-24T22:10:14.374Z,99149.34
2022-08-24T22:12:43.893Z,99143.63
2022-08-24T22:15:14.406Z,99150.19
2022-08-24T22:17:42.182Z,99144.34
2022-08-24T22:20:15.148Z,99140.25
2022-08-24T22:22:51.675Z,99144.66
2022-08-24T22:25:19.723Z,99144.09
2022-08-24T22:27:48.740Z,99139.72
2022-08-24T22:30:18.846Z,99144.19
2022-08-24T22:32:47.259Z,99139.41
2022-08-24T22:35:15.210Z,99141.78
2022-08-24T22:37:42.934Z,99139.16
2022-08-24T22:40:12.664Z,99141.72
2022-08-24T22:42:40.689Z,99147.47
2022-08-24T22:45:12.073Z,99138.09
2022-08-24T22:47:39.689Z,99138.03
2022-08-24T22:50:08.752Z,99143.88
2022-08-24T22:52:36.425Z,99142.94
2022-08-24T22:55:05.586Z,99142.78
2022-08-24T22:57:33.665Z,99143.38
2022-08-24T23:00:01.341Z,99148.28
2022-08-24T23:02:30.459Z,99150.81
2022-08-24T23:04:58.175Z,99142.59
2022-08-24T23:07:25.988Z,99145.72
2022-08-24T23:09:53.594Z,99141.28
2022-08-24T23:12:24.121Z,99145.44
2022-08-24T23:14:52.720Z,99147.28
2022-08-24T23:17:20.979Z,99145.59
2022-08-24T23:20:01.604Z,99143.16
2022-08-24T23:22:32.390Z,99146.19
2022-08-24T23:25:01.460Z,99149.16
2022-08-24T23:27:37.818Z,99152.28
2022-08-24T23:30:08.247Z,99141.78
2022-08-24T23:32:36.107Z,99147.56
2022-08-24T23:35:06.162Z,99145.19
2022-08-24T23:37:33.822Z,99145.47
2022-08-24T23:40:01.855Z,99143.59
2022-08-24T23:42:29.536Z,99134.16
2022-08-24T23:44:57.524Z,99143.38
2022-08-24T23:47:25.235Z,99139.28
2022-08-24T23:49:52.971Z,99146.63
2022-08-24T23:52:28.665Z,99136.88
2022-08-24T23:55:19.905Z,99132.50
2022-08-24T23:57:46.539Z,99126.97
